0AZ6 weather

St Joseph's Hospital Heliport
Phoenix, Arizona, United States

Public forecast

Using degrees Fahrenheit for public forecast. Weather courtesy of forecast.io.

Closest aviation weather report (METAR) to St Joseph's Hospital Heliport

Closest report is Phoenix Sky Harbor International Airport, 4.3 nm (8.0 km) SE. Retrieved 2020/06/06 22:51 UTC (37 minutes ago):

KPHX 062251Z 22010G16KT 10SM CLR 34/08 A2973 RMK AO2 SLP048 T03390083

Closest aviation forecast (TAF) to St Joseph's Hospital Heliport

Closest forecast is Phoenix Sky Harbor International Airport, 4.3 nm (8.0 km) SE. Retrieved 2020/06/06 18:42 UTC (5 hours ago):

TAF KPHX 061740Z 0618/0724 23006KT P6SM FEW050 TEMPO 0618/0620 17005KT FEW050 FM062100 26012KT P6SM FEW050 FM070400 26006KT P6SM SKC FM071200 12005KT P6SM SKC FM072100 26010KT P6SM SKC